Astoria, OR (97103)

3:40 AM PST on February 13, 2016 (GMT -0800)
The Slope of South | | Change Station
CLOSE
Current Station
Personal Weather Station
Location: Astoria, OR
Elevation: 213 ft
Nearby Weather Stations

Elev 213 ft 46.18 °N, 123.84 °W | Updated 10 minutes ago

Mostly Cloudy
Mostly Cloudy
47.7 °F
Feels Like 45 °F
N
5.8
Wind Variable Wind from SW

Today
High -- | Low -- °F
--% Chance of Precip.
Yesterday
High -- | Low -- °F
Precip. -- in
Pressure 30.28 in
Visibility 10.0 miles
Clouds Mostly Cloudy 4700 ft
Windchill 45 °F
Dew Point 44 °F
Humidity 87%
Rainfall 0.00 in
Snow Depth Not available.
7:21 AM 5:37 PM
Waxing Crescent, 30% visible
METAR KAST 131055Z AUTO 23009KT 10SM BKN047 10/06 A3028 RMK AO2 SLP254 T01000061
Pressure 30.28 in
Visibility 10.0 miles
Clouds Mostly Cloudy 4700 ft
Windchill 45 °F
Dew Point 44 °F
Humidity 87%
Rainfall 0.00 in
Snow Depth Not available.
7:21 AM 5:37 PM
Waxing Crescent, 30% visible
METAR KAST 131055Z AUTO 23009KT 10SM BKN047 10/06 A3028 RMK AO2 SLP254 T01000061

10-Day Weather Forecast

Almanac

Astronomy

Feb. 13, 2016 Rise Set
Actual Time
Civil Twilight
Nautical Twilight
Astronomical Twilight
Moon
Length of Visible Light
Length of Day
Tomorrow will be .
, % of the Moon is Illuminated

Today's Extremes

State Highs State Lows

Community

WunderPhotos

Upload Photos

1,892,541 photos uploaded!

WunderBlog® & News

Nearby

Air Quality

  Air Quality AQ Index Pollutant
Not available.

Snow Depth

Station Depth Elevation

Earthquake Activity

City Distance Mag. Time & Date
Minimum magnitude displayed is 2.5.

Coastal Water Temperatures

Place Temperature

Stations

Nearby Weather Stations

Station Location Temp. Windchill Dew Point Humidity Wind Precip. Elev Updated Type
                   

Watches & Warnings

There are currently no watches in effect.